createdAt,value
2019-02-04T00:01:27.769Z,14.13
2019-02-04T00:03:58.755Z,10.48
2019-02-04T00:06:29.648Z,15.70
2019-02-04T00:09:00.427Z,12.43
2019-02-04T00:11:31.219Z,16.00
2019-02-04T00:14:02.343Z,15.07
2019-02-04T00:16:40.691Z,11.85
2019-02-04T00:19:05.834Z,13.03
2019-02-04T00:21:36.922Z,16.47
2019-02-04T00:24:07.699Z,12.63
2019-02-04T00:26:38.497Z,12.73
2019-02-04T00:29:09.255Z,11.90
2019-02-04T00:31:40.053Z,13.63
2019-02-04T00:34:10.856Z,13.30
2019-02-04T00:36:41.658Z,10.47
2019-02-04T00:39:12.431Z,11.87
2019-02-04T00:41:43.407Z,12.27
2019-02-04T00:44:14.171Z,13.27
2019-02-04T00:46:52.047Z,13.60
2019-02-04T00:49:17.891Z,13.45
2019-02-04T00:51:48.680Z,12.75
2019-02-04T00:54:19.754Z,12.60
2019-02-04T00:56:50.572Z,13.83
2019-02-04T00:59:21.350Z,13.23
2019-02-04T01:01:52.124Z,14.93
2019-02-04T01:04:22.926Z,12.23
2019-02-04T01:06:54.363Z,11.57
2019-02-04T01:09:25.129Z,13.43
2019-02-04T01:11:55.902Z,9.70
2019-02-04T01:14:26.663Z,12.07
2019-02-04T01:17:03.377Z,12.80
2019-02-04T01:19:30.171Z,10.25
2019-02-04T01:22:01.219Z,13.17
2019-02-04T01:24:31.994Z,12.65
2019-02-04T01:27:02.773Z,13.53
2019-02-04T01:29:33.551Z,12.03
2019-02-04T01:32:04.725Z,8.60
2019-02-04T01:34:35.519Z,11.60
2019-02-04T01:37:06.302Z,9.90
2019-02-04T01:39:37.066Z,10.20
2019-02-04T01:42:07.946Z,12.00
2019-02-04T01:44:39.019Z,11.80
2019-02-04T01:47:14.718Z,14.30
2019-02-04T01:49:42.467Z,13.38
2019-02-04T01:52:13.248Z,11.73
2019-02-04T01:54:44.019Z,10.57
2019-02-04T01:57:15.208Z,11.20
2019-02-04T01:59:45.987Z,11.47
2019-02-04T02:02:16.776Z,10.13
2019-02-04T02:04:47.635Z,10.20
2019-02-04T02:07:18.421Z,12.47
2019-02-04T02:09:49.491Z,8.63
2019-02-04T02:12:20.267Z,10.83
2019-02-04T02:14:51.064Z,11.30
2019-02-04T02:17:26.519Z,8.70
2019-02-04T02:19:54.508Z,9.18
2019-02-04T02:22:25.409Z,8.30
2019-02-04T02:24:56.415Z,9.53
2019-02-04T02:27:27.204Z,8.43
2019-02-04T02:29:57.993Z,11.73
2019-02-04T02:32:28.877Z,11.73
2019-02-04T02:35:00.465Z,8.35
2019-02-04T02:37:31.280Z,7.85
2019-02-04T02:40:05.857Z,11.73
2019-02-04T02:42:37.717Z,11.00
2019-02-04T02:45:08.496Z,9.10
2019-02-04T02:47:39.677Z,6.90
2019-02-04T02:50:12.464Z,7.50
2019-02-04T02:52:43.258Z,9.15
2019-02-04T02:55:18.108Z,9.93
2019-02-04T02:57:48.919Z,8.98
2019-02-04T03:00:21.824Z,9.53
2019-02-04T03:02:52.720Z,11.60
2019-02-04T03:05:25.086Z,8.20
2019-02-04T03:07:55.880Z,9.88
2019-02-04T03:10:28.738Z,10.57
2019-02-04T03:12:59.525Z,11.65
2019-02-04T03:15:30.324Z,11.23
2019-02-04T03:18:01.162Z,10.10
2019-02-04T03:20:31.886Z,11.63
2019-02-04T03:23:02.679Z,7.10
2019-02-04T03:25:33.466Z,10.10
2019-02-04T03:28:04.267Z,10.53
2019-02-04T03:30:35.046Z,12.53
2019-02-04T03:33:05.964Z,10.93
2019-02-04T03:35:36.805Z,7.97
2019-02-04T03:38:07.637Z,10.00
2019-02-04T03:40:38.419Z,11.97
2019-02-04T03:43:09.197Z,9.17
2019-02-04T03:45:39.982Z,9.40
2019-02-04T03:48:10.768Z,9.20
2019-02-04T03:50:41.545Z,11.20
2019-02-04T03:53:12.333Z,7.43
2019-02-04T03:55:43.231Z,10.53
2019-02-04T03:58:14.150Z,11.67
2019-02-04T04:00:44.935Z,12.23
2019-02-04T04:03:15.714Z,11.10
2019-02-04T04:05:46.492Z,10.53
2019-02-04T04:08:17.279Z,10.80
2019-02-04T04:10:48.072Z,13.57
2019-02-04T04:13:18.848Z,7.70
2019-02-04T04:15:49.645Z,10.27
2019-02-04T04:18:20.497Z,10.13
2019-02-04T04:20:51.267Z,9.90
2019-02-04T04:23:22.037Z,9.00
2019-02-04T04:25:52.820Z,8.83
2019-02-04T04:28:23.794Z,9.85
2019-02-04T04:30:56.592Z,11.03
2019-02-04T04:33:27.384Z,11.50
2019-02-04T04:35:58.158Z,9.77
2019-02-04T04:38:28.936Z,11.10
2019-02-04T04:41:00.119Z,8.28
2019-02-04T04:43:30.904Z,13.80
2019-02-04T04:46:01.810Z,11.10
2019-02-04T04:48:32.574Z,9.53
2019-02-04T04:51:03.353Z,8.10
2019-02-04T04:53:34.540Z,10.03
2019-02-04T04:56:05.407Z,9.40
2019-02-04T04:58:36.206Z,9.90
2019-02-04T05:01:07.116Z,8.17
2019-02-04T05:03:37.896Z,9.70
2019-02-04T05:06:08.677Z,10.13
2019-02-04T05:08:39.472Z,10.83
2019-02-04T05:11:10.360Z,8.33
2019-02-04T05:13:41.138Z,10.63
2019-02-04T05:16:11.907Z,9.20
2019-02-04T05:18:42.672Z,12.03
2019-02-04T05:21:13.471Z,8.30
2019-02-04T05:23:44.242Z,11.40
2019-02-04T05:26:15.028Z,9.77
2019-02-04T05:28:46.792Z,11.13
2019-02-04T05:31:17.614Z,10.50
2019-02-04T05:33:48.412Z,9.67
2019-02-04T05:36:20.293Z,8.33
2019-02-04T05:38:51.057Z,9.95
2019-02-04T05:41:21.825Z,11.77
2019-02-04T05:43:52.594Z,9.50
2019-02-04T05:46:23.445Z,8.83
2019-02-04T05:48:54.234Z,13.77
2019-02-04T05:51:25.014Z,9.07
2019-02-04T05:53:56.886Z,10.60
2019-02-04T05:56:27.847Z,9.90
2019-02-04T05:58:58.768Z,9.50
2019-02-04T06:01:29.560Z,9.60
2019-02-04T06:04:00.339Z,11.63
2019-02-04T06:06:31.123Z,9.50
2019-02-04T06:09:04.381Z,13.47
2019-02-04T06:11:35.152Z,10.40
2019-02-04T06:14:05.927Z,14.10
2019-02-04T06:16:36.707Z,11.83
2019-02-04T06:19:07.481Z,9.97
2019-02-04T06:21:38.256Z,10.27
2019-02-04T06:24:09.025Z,9.70
2019-02-04T06:26:39.822Z,12.67
2019-02-04T06:29:10.602Z,10.67
2019-02-04T06:31:41.383Z,9.33
2019-02-04T06:34:12.169Z,12.10
2019-02-04T06:36:43.049Z,10.10
2019-02-04T06:39:13.829Z,14.13
2019-02-04T06:41:44.600Z,10.57
2019-02-04T06:44:15.381Z,12.90
2019-02-04T06:46:46.214Z,13.83
2019-02-04T06:49:17.421Z,16.20
2019-02-04T06:51:50.092Z,15.90
2019-02-04T06:54:20.891Z,15.85
2019-02-04T06:56:51.703Z,15.63
2019-02-04T06:59:22.585Z,14.27
2019-02-04T07:01:53.783Z,16.57
2019-02-04T07:04:24.578Z,11.80
2019-02-04T07:06:55.352Z,14.30
2019-02-04T07:09:26.231Z,13.03
2019-02-04T07:11:57.062Z,11.53
2019-02-04T07:14:27.853Z,14.77
2019-02-04T07:16:58.628Z,11.17
2019-02-04T07:19:29.425Z,15.00
2019-02-04T07:22:00.228Z,13.37
2019-02-04T07:24:42.135Z,13.50
2019-02-04T07:27:03.679Z,13.60
2019-02-04T07:29:34.491Z,22.37
2019-02-04T07:32:05.260Z,13.87
2019-02-04T07:34:36.043Z,14.60
2019-02-04T07:37:06.824Z,18.90
2019-02-04T07:39:37.599Z,13.80
2019-02-04T07:42:08.773Z,16.20
2019-02-04T07:44:39.548Z,15.93
2019-02-04T07:47:10.312Z,14.20
2019-02-04T07:49:41.137Z,14.50
2019-02-04T07:52:12.009Z,16.13
2019-02-04T07:54:43.250Z,15.15
2019-02-04T07:57:14.013Z,16.40
2019-02-04T07:59:44.801Z,13.77
2019-02-04T08:02:15.583Z,14.40
2019-02-04T08:04:46.343Z,14.50
2019-02-04T08:07:17.609Z,14.00
2019-02-04T08:09:48.644Z,16.70
2019-02-04T08:12:25.224Z,18.05
2019-02-04T08:14:56.000Z,16.42
2019-02-04T08:17:26.781Z,19.47
2019-02-04T08:19:57.944Z,15.05
2019-02-04T08:22:28.720Z,17.83
2019-02-04T08:24:59.494Z,45.53
2019-02-04T08:27:30.254Z,62.13
2019-02-04T08:30:01.133Z,26.67
2019-02-04T08:32:32.299Z,30.02
2019-02-04T08:35:04.983Z,30.80
2019-02-04T08:37:35.742Z,31.12
2019-02-04T08:40:10.223Z,34.90
2019-02-04T08:42:40.989Z,33.35
2019-02-04T08:45:13.362Z,37.00
2019-02-04T08:47:44.120Z,30.17
2019-02-04T08:50:17.514Z,30.20
2019-02-04T08:52:48.398Z,30.60
2019-02-04T08:55:19.343Z,30.50
2019-02-04T08:57:50.230Z,26.73
2019-02-04T09:00:22.437Z,25.27
2019-02-04T09:02:53.225Z,28.83
2019-02-04T09:05:24.129Z,22.70
2019-02-04T09:07:54.874Z,24.57
2019-02-04T09:10:28.886Z,24.87
2019-02-04T09:13:00.253Z,25.70
2019-02-04T09:15:31.032Z,20.45
2019-02-04T09:18:01.900Z,23.73
2019-02-04T09:20:32.730Z,22.47
2019-02-04T09:23:06.027Z,23.80
2019-02-04T09:25:36.185Z,20.48
2019-02-04T09:28:06.996Z,27.73
2019-02-04T09:30:37.775Z,19.50
2019-02-04T09:33:08.536Z,20.57
2019-02-04T09:35:39.308Z,19.70
2019-02-04T09:38:10.087Z,19.17
2019-02-04T09:40:42.364Z,18.37
2019-02-04T09:43:13.136Z,19.45
2019-02-04T09:45:43.908Z,17.77
2019-02-04T09:48:16.172Z,23.90
2019-02-04T09:50:49.653Z,17.75
2019-02-04T09:53:20.427Z,22.75
2019-02-04T09:55:51.226Z,21.60
2019-02-04T09:58:22.009Z,20.23
2019-02-04T10:00:52.895Z,22.27
2019-02-04T10:03:23.669Z,19.30
2019-02-04T10:05:54.439Z,19.33
2019-02-04T10:08:25.208Z,21.27
2019-02-04T10:10:56.047Z,18.73
2019-02-04T10:13:28.834Z,19.10
2019-02-04T10:15:59.695Z,24.55
2019-02-04T10:18:30.487Z,17.33
2019-02-04T10:21:01.694Z,20.13
2019-02-04T10:23:32.433Z,19.32
2019-02-04T10:26:03.331Z,18.17
2019-02-04T10:28:34.154Z,22.30
2019-02-04T10:31:04.945Z,20.07
2019-02-04T10:33:35.820Z,21.73
2019-02-04T10:36:06.675Z,24.40
2019-02-04T10:38:37.459Z,20.23
2019-02-04T10:41:11.633Z,20.73
2019-02-04T10:43:42.456Z,17.82
2019-02-04T10:46:13.223Z,20.50
2019-02-04T10:48:44.364Z,17.10
2019-02-04T10:51:15.226Z,21.70
2019-02-04T10:53:46.020Z,18.57
2019-02-04T10:56:16.898Z,18.13
2019-02-04T10:58:47.703Z,20.13
2019-02-04T11:01:18.493Z,17.63
2019-02-04T11:03:49.355Z,16.23
2019-02-04T11:06:20.116Z,17.73
2019-02-04T11:08:51.435Z,17.17
2019-02-04T11:11:22.213Z,23.73
2019-02-04T11:13:53.062Z,17.87
2019-02-04T11:16:23.844Z,18.50
2019-02-04T11:18:54.599Z,19.53
2019-02-04T11:21:25.793Z,17.00
2019-02-04T11:23:57.278Z,16.90
2019-02-04T11:26:28.025Z,24.12
2019-02-04T11:28:59.096Z,17.00
2019-02-04T11:31:29.896Z,16.15
2019-02-04T11:34:00.979Z,13.58
2019-02-04T11:36:31.758Z,21.40
2019-02-04T11:39:05.598Z,17.30
2019-02-04T11:41:36.459Z,17.12
2019-02-04T11:44:07.294Z,16.80
2019-02-04T11:46:38.457Z,19.35
2019-02-04T11:49:09.234Z,21.33
2019-02-04T11:51:39.999Z,21.53
2019-02-04T11:54:10.765Z,19.00
2019-02-04T11:56:41.747Z,20.33
2019-02-04T11:59:12.516Z,14.83
2019-02-04T12:01:43.355Z,16.93
2019-02-04T12:04:14.127Z,14.87
2019-02-04T12:06:44.966Z,13.50
2019-02-04T12:09:15.739Z,15.23
2019-02-04T12:11:46.517Z,14.50
2019-02-04T12:14:17.342Z,14.73
2019-02-04T12:16:48.119Z,14.60
2019-02-04T12:19:18.894Z,16.13
2019-02-04T12:21:49.784Z,14.00
2019-02-04T12:24:20.553Z,14.30
2019-02-04T12:26:51.520Z,16.00
2019-02-04T12:29:22.306Z,16.93
2019-02-04T12:31:53.061Z,12.90
2019-02-04T12:34:23.928Z,14.00
2019-02-04T12:36:54.750Z,13.60
2019-02-04T12:39:25.836Z,11.25
2019-02-04T12:41:56.618Z,12.00
2019-02-04T12:44:27.400Z,13.77
2019-02-04T12:46:58.183Z,14.80
2019-02-04T12:49:28.947Z,12.83
2019-02-04T12:51:59.805Z,10.90
2019-02-04T12:54:30.581Z,10.20
2019-02-04T12:57:01.408Z,11.70
2019-02-04T12:59:32.275Z,10.03
2019-02-04T13:02:03.144Z,13.73
2019-02-04T13:04:33.915Z,10.50
2019-02-04T13:07:04.789Z,13.00
2019-02-04T13:09:35.564Z,12.27
2019-02-04T13:12:09.087Z,10.90
2019-02-04T13:14:39.139Z,15.30
2019-02-04T13:17:09.971Z,10.40
2019-02-04T13:19:40.744Z,17.00
2019-02-04T13:22:11.608Z,15.90
2019-02-04T13:24:42.389Z,13.83
2019-02-04T13:27:13.155Z,11.30
2019-02-04T13:29:43.926Z,12.10
2019-02-04T13:32:15.090Z,13.30
2019-02-04T13:34:45.871Z,11.83
2019-02-04T13:37:16.703Z,11.53
2019-02-04T13:39:47.465Z,11.20
2019-02-04T13:42:18.235Z,12.23
2019-02-04T13:44:49.321Z,12.58
2019-02-04T13:47:20.089Z,13.90
2019-02-04T13:49:50.914Z,12.73
2019-02-04T13:52:21.733Z,14.40
2019-02-04T13:54:52.614Z,15.17
2019-02-04T13:57:23.815Z,14.25
2019-02-04T13:59:54.652Z,14.13
2019-02-04T14:02:25.501Z,15.43
2019-02-04T14:04:57.090Z,16.73
2019-02-04T14:07:27.868Z,15.30
2019-02-04T14:09:59.323Z,12.50
2019-02-04T14:12:30.129Z,12.20
2019-02-04T14:15:00.907Z,11.83
2019-02-04T14:17:31.667Z,14.67
2019-02-04T14:20:05.549Z,11.20
2019-02-04T14:22:36.789Z,14.30
2019-02-04T14:25:08.049Z,13.27
2019-02-04T14:27:38.811Z,11.43
2019-02-04T14:30:15.614Z,15.57
2019-02-04T14:32:46.677Z,14.47
2019-02-04T14:35:17.648Z,12.50
2019-02-04T14:37:48.518Z,13.00
2019-02-04T14:40:19.538Z,16.33
2019-02-04T14:42:53.805Z,14.60
2019-02-04T14:45:28.796Z,14.07
2019-02-04T14:48:06.377Z,13.60
2019-02-04T14:50:43.775Z,13.80
2019-02-04T14:53:27.625Z,19.05
2019-02-04T14:56:29.387Z,16.05
2019-02-04T14:59:07.176Z,15.03
2019-02-04T15:01:41.783Z,14.80
2019-02-04T15:04:19.269Z,15.53
2019-02-04T15:07:23.036Z,18.10
2019-02-04T15:10:12.383Z,17.60
2019-02-04T15:13:08.463Z,20.68
2019-02-04T15:15:55.093Z,20.85
2019-02-04T15:18:32.674Z,24.15
2019-02-04T15:21:10.359Z,17.17
2019-02-04T15:24:08.790Z,18.62
2019-02-04T15:26:57.489Z,18.27
2019-02-04T15:29:47.068Z,20.90
2019-02-04T15:32:21.726Z,21.45
2019-02-04T15:35:16.426Z,61.50
2019-02-04T15:38:14.239Z,29.02
2019-02-04T15:40:54.750Z,19.95
2019-02-04T15:43:40.078Z,37.33
2019-02-04T15:46:21.230Z,38.55
2019-02-04T15:49:13.044Z,26.50
2019-02-04T15:51:52.208Z,22.77
2019-02-04T15:54:23.005Z,24.18
2019-02-04T15:56:53.995Z,24.73
2019-02-04T15:59:24.806Z,25.57
2019-02-04T16:01:55.997Z,23.65
2019-02-04T16:04:32.897Z,28.07
2019-02-04T16:07:05.787Z,26.85
2019-02-04T16:09:36.594Z,27.52
2019-02-04T16:12:07.493Z,27.00
2019-02-04T16:14:38.469Z,26.55
2019-02-04T16:17:09.348Z,48.67
2019-02-04T16:19:47.499Z,36.13
2019-02-04T16:22:18.262Z,35.85
2019-02-04T16:24:49.059Z,32.23
2019-02-04T16:27:19.825Z,36.13
2019-02-04T16:29:50.678Z,22.57
2019-02-04T16:32:21.468Z,33.30
2019-02-04T16:34:52.249Z,40.03
2019-02-04T16:37:23.138Z,35.43
2019-02-04T16:40:11.012Z,38.75
2019-02-04T16:42:41.799Z,33.25
2019-02-04T16:45:21.054Z,28.63
2019-02-04T16:47:52.251Z,25.35
2019-02-04T16:50:25.081Z,29.40
2019-02-04T16:52:56.013Z,30.30
2019-02-04T16:55:26.790Z,30.17
2019-02-04T16:57:57.679Z,32.67
2019-02-04T17:00:32.413Z,24.87
2019-02-04T17:03:03.291Z,21.82
2019-02-04T17:05:34.174Z,27.37
2019-02-04T17:08:05.275Z,25.47
2019-02-04T17:10:36.060Z,37.73
2019-02-04T17:13:07.240Z,28.62
2019-02-04T17:15:38.039Z,25.07
2019-02-04T17:18:08.810Z,27.57
2019-02-04T17:20:39.697Z,21.77
2019-02-04T17:23:21.672Z,29.60
2019-02-04T17:25:43.165Z,25.75
2019-02-04T17:28:14.024Z,26.87
2019-02-04T17:30:44.955Z,27.03
2019-02-04T17:33:15.855Z,24.60
2019-02-04T17:35:46.762Z,27.07
2019-02-04T17:38:17.673Z,33.77
2019-02-04T17:40:48.458Z,30.33
2019-02-04T17:43:19.387Z,42.03
2019-02-04T17:45:50.381Z,38.83
2019-02-04T17:48:21.455Z,27.60
2019-02-04T17:50:52.595Z,25.15
2019-02-04T17:53:33.816Z,30.08
2019-02-04T17:55:56.779Z,30.30
2019-02-04T17:58:27.732Z,30.02
2019-02-04T18:00:58.663Z,31.53
2019-02-04T18:03:29.597Z,33.87
2019-02-04T18:06:00.717Z,30.72
2019-02-04T18:08:31.650Z,33.83
2019-02-04T18:11:02.747Z,33.80
2019-02-04T18:13:33.948Z,33.42
2019-02-04T18:16:05.358Z,29.75
2019-02-04T18:18:36.814Z,31.80
2019-02-04T18:21:07.752Z,30.82
2019-02-04T18:23:45.532Z,30.90
2019-02-04T18:26:11.657Z,33.08
2019-02-04T18:28:43.116Z,31.37
2019-02-04T18:31:14.218Z,35.78
2019-02-04T18:33:57.389Z,36.05
2019-02-04T18:36:28.467Z,32.13
2019-02-04T18:39:00.303Z,34.90
2019-02-04T18:41:31.388Z,33.80
2019-02-04T18:44:04.106Z,35.23
2019-02-04T18:46:35.729Z,33.83
2019-02-04T18:49:06.865Z,36.85
2019-02-04T18:51:38.110Z,32.88
2019-02-04T18:54:09.358Z,28.42
2019-02-04T18:56:40.434Z,31.95
2019-02-04T18:59:13.276Z,32.30
2019-02-04T19:01:44.506Z,28.57
2019-02-04T19:04:15.892Z,34.25
2019-02-04T19:06:48.139Z,37.05
2019-02-04T19:09:21.789Z,37.13
2019-02-04T19:11:55.450Z,39.08
2019-02-04T19:14:26.039Z,29.72
2019-02-04T19:16:57.138Z,25.77
2019-02-04T19:19:28.563Z,36.20
2019-02-04T19:21:59.952Z,33.08
2019-02-04T19:24:31.577Z,33.90
2019-02-04T19:27:03.841Z,35.13
2019-02-04T19:29:35.410Z,34.05
2019-02-04T19:32:06.875Z,32.30
2019-02-04T19:34:38.264Z,27.10
2019-02-04T19:37:09.649Z,37.70
2019-02-04T19:39:41.112Z,38.33
2019-02-04T19:42:12.842Z,34.65
2019-02-04T19:44:44.392Z,40.80
2019-02-04T19:47:15.729Z,32.90
2019-02-04T19:49:47.287Z,30.23
2019-02-04T19:52:18.721Z,31.93
2019-02-04T19:54:50.347Z,35.15
2019-02-04T19:57:21.955Z,36.10
2019-02-04T19:59:53.794Z,30.52
2019-02-04T20:02:25.459Z,37.50
2019-02-04T20:04:56.828Z,36.42
2019-02-04T20:07:28.702Z,33.42
2019-02-04T20:10:00.530Z,35.03
2019-02-04T20:12:32.196Z,35.20
2019-02-04T20:15:07.544Z,34.40
2019-02-04T20:17:39.004Z,36.30
2019-02-04T20:20:10.824Z,31.25
2019-02-04T20:22:42.172Z,42.85
2019-02-04T20:25:23.051Z,38.08
2019-02-04T20:27:54.952Z,40.95
2019-02-04T20:30:44.628Z,41.98
2019-02-04T20:33:06.993Z,31.87
2019-02-04T20:35:39.759Z,43.48
2019-02-04T20:38:11.144Z,37.25
2019-02-04T20:40:42.248Z,35.40
2019-02-04T20:43:13.550Z,32.38
2019-02-04T20:45:45.009Z,38.78
2019-02-04T20:48:16.417Z,35.63
2019-02-04T20:50:49.497Z,33.48
2019-02-04T20:53:21.235Z,35.38
2019-02-04T20:55:52.600Z,40.25
2019-02-04T20:58:23.711Z,31.70
2019-02-04T21:00:55.339Z,40.58
2019-02-04T21:03:31.373Z,34.25
2019-02-04T21:06:03.576Z,34.95
2019-02-04T21:08:34.959Z,33.53
2019-02-04T21:11:06.579Z,40.25
2019-02-04T21:13:37.525Z,33.38
2019-02-04T21:16:08.721Z,29.47
2019-02-04T21:18:40.258Z,30.30
2019-02-04T21:21:11.510Z,31.15
2019-02-04T21:23:42.583Z,34.78
2019-02-04T21:26:13.633Z,38.98
2019-02-04T21:28:45.012Z,38.10
2019-02-04T21:31:16.069Z,37.05
2019-02-04T21:33:47.179Z,35.10
2019-02-04T21:36:17.956Z,33.40
2019-02-04T21:38:48.737Z,36.00
2019-02-04T21:41:19.623Z,38.40
2019-02-04T21:43:50.434Z,39.90
2019-02-04T21:46:21.232Z,35.20
2019-02-04T21:48:52.026Z,33.40
2019-02-04T21:51:22.816Z,36.10
2019-02-04T21:53:53.594Z,37.80
2019-02-04T21:56:24.384Z,37.33
2019-02-04T21:58:55.379Z,34.10
2019-02-04T22:01:26.172Z,38.53
2019-02-04T22:03:56.952Z,31.77
2019-02-04T22:06:27.734Z,45.20
2019-02-04T22:08:58.500Z,44.10
2019-02-04T22:11:29.299Z,40.23
2019-02-04T22:14:00.401Z,31.10
2019-02-04T22:16:31.200Z,38.70
2019-02-04T22:19:03.872Z,41.30
2019-02-04T22:21:34.639Z,30.43
2019-02-04T22:24:05.728Z,48.50
2019-02-04T22:26:36.573Z,40.00
2019-02-04T22:29:07.622Z,36.35
2019-02-04T22:31:38.406Z,33.83
2019-02-04T22:34:09.565Z,37.17
2019-02-04T22:36:40.340Z,30.30
2019-02-04T22:39:11.407Z,29.50
2019-02-04T22:41:42.191Z,41.80
2019-02-04T22:44:12.953Z,33.47
2019-02-04T22:46:43.761Z,41.77
2019-02-04T22:49:14.570Z,36.43
2019-02-04T22:51:45.360Z,33.20
2019-02-04T22:54:16.126Z,41.27
2019-02-04T22:56:46.916Z,59.17
2019-02-04T22:59:17.687Z,28.43
2019-02-04T23:01:48.962Z,36.33
2019-02-04T23:04:19.747Z,38.92
2019-02-04T23:06:50.542Z,43.50
2019-02-04T23:09:21.417Z,43.27
2019-02-04T23:11:52.334Z,32.03
2019-02-04T23:14:23.108Z,42.60
2019-02-04T23:16:54.305Z,44.40
2019-02-04T23:19:25.175Z,36.58
2019-02-04T23:21:55.944Z,38.50
2019-02-04T23:24:26.732Z,22.57
2019-02-04T23:26:57.511Z,36.43
2019-02-04T23:29:28.296Z,30.37
2019-02-04T23:31:59.362Z,29.90
2019-02-04T23:34:30.176Z,40.00
2019-02-04T23:37:01.023Z,34.10
2019-02-04T23:39:31.800Z,31.40
2019-02-04T23:42:02.573Z,25.13
2019-02-04T23:44:33.562Z,44.98
2019-02-04T23:47:04.339Z,32.27
2019-02-04T23:49:35.112Z,37.93
2019-02-04T23:52:05.971Z,37.23
2019-02-04T23:54:36.778Z,30.23
2019-02-04T23:57:07.540Z,27.10
2019-02-04T23:59:38.379Z,31.53
